sensor_id;sensor_type;location;lat;lon;timestamp;P1;durP1;ratioP1;P2;durP2;ratioP2
9775;SDS011;4927;52.472;13.108;2022-12-18T00:02:22;79.15;;;30.05;;
9775;SDS011;4927;52.472;13.108;2022-12-18T00:07:28;73.65;;;29.17;;
9775;SDS011;4927;52.472;13.108;2022-12-18T00:12:34;57.03;;;25.92;;
9775;SDS011;4927;52.472;13.108;2022-12-18T00:17:41;66.18;;;27.25;;
9775;SDS011;4927;52.472;13.108;2022-12-18T00:22:45;64.95;;;25.52;;
9775;SDS011;4927;52.472;13.108;2022-12-18T00:27:51;61.80;;;25.65;;
9775;SDS011;4927;52.472;13.108;2022-12-18T00:32:58;59.92;;;24.12;;
9775;SDS011;4927;52.472;13.108;2022-12-18T00:38:02;67.32;;;26.37;;
9775;SDS011;4927;52.472;13.108;2022-12-18T00:43:08;63.67;;;25.85;;
9775;SDS011;4927;52.472;13.108;2022-12-18T00:48:15;60.53;;;25.42;;
9775;SDS011;4927;52.472;13.108;2022-12-18T00:53:21;66.87;;;26.77;;
9775;SDS011;4927;52.472;13.108;2022-12-18T00:58:27;71.50;;;27.70;;
9775;SDS011;4927;52.472;13.108;2022-12-18T01:03:34;55.50;;;23.92;;
9775;SDS011;4927;52.472;13.108;2022-12-18T01:08:40;63.30;;;26.08;;
9775;SDS011;4927;52.472;13.108;2022-12-18T01:13:46;65.62;;;23.73;;
9775;SDS011;4927;52.472;13.108;2022-12-18T01:18:53;61.37;;;24.83;;
9775;SDS011;4927;52.472;13.108;2022-12-18T01:23:59;63.90;;;24.37;;
9775;SDS011;4927;52.472;13.108;2022-12-18T01:29:06;63.78;;;25.73;;
9775;SDS011;4927;52.472;13.108;2022-12-18T01:34:12;68.03;;;27.08;;
9775;SDS011;4927;52.472;13.108;2022-12-18T01:39:17;65.10;;;25.25;;
9775;SDS011;4927;52.472;13.108;2022-12-18T01:49:42;58.72;;;24.35;;
9775;SDS011;4927;52.472;13.108;2022-12-18T01:54:49;60.10;;;24.70;;
9775;SDS011;4927;52.472;13.108;2022-12-18T01:59:57;57.92;;;23.50;;
9775;SDS011;4927;52.472;13.108;2022-12-18T02:05:02;53.42;;;22.33;;
9775;SDS011;4927;52.472;13.108;2022-12-18T02:10:12;57.25;;;23.98;;
9775;SDS011;4927;52.472;13.108;2022-12-18T02:15:20;56.00;;;25.12;;
9775;SDS011;4927;52.472;13.108;2022-12-18T02:20:28;64.65;;;25.05;;
9775;SDS011;4927;52.472;13.108;2022-12-18T02:25:51;60.15;;;23.98;;
9775;SDS011;4927;52.472;13.108;2022-12-18T02:30:56;60.30;;;25.80;;
9775;SDS011;4927;52.472;13.108;2022-12-18T02:36:01;66.60;;;25.45;;
9775;SDS011;4927;52.472;13.108;2022-12-18T02:41:08;66.22;;;25.95;;
9775;SDS011;4927;52.472;13.108;2022-12-18T02:51:29;59.35;;;24.10;;
9775;SDS011;4927;52.472;13.108;2022-12-18T02:56:35;56.13;;;23.52;;
9775;SDS011;4927;52.472;13.108;2022-12-18T03:01:52;59.15;;;24.20;;
9775;SDS011;4927;52.472;13.108;2022-12-18T03:07:05;56.97;;;24.27;;
9775;SDS011;4927;52.472;13.108;2022-12-18T03:12:16;58.80;;;24.85;;
9775;SDS011;4927;52.472;13.108;2022-12-18T03:17:27;61.22;;;24.58;;
9775;SDS011;4927;52.472;13.108;2022-12-18T03:22:33;57.67;;;24.25;;
9775;SDS011;4927;52.472;13.108;2022-12-18T03:27:43;58.72;;;23.92;;
9775;SDS011;4927;52.472;13.108;2022-12-18T03:38:10;66.62;;;26.67;;
9775;SDS011;4927;52.472;13.108;2022-12-18T03:43:19;66.15;;;27.60;;
9775;SDS011;4927;52.472;13.108;2022-12-18T03:48:39;68.97;;;27.62;;
9775;SDS011;4927;52.472;13.108;2022-12-18T03:53:50;63.38;;;26.15;;
9775;SDS011;4927;52.472;13.108;2022-12-18T03:58:53;67.47;;;27.20;;
9775;SDS011;4927;52.472;13.108;2022-12-18T04:04:00;72.15;;;28.42;;
9775;SDS011;4927;52.472;13.108;2022-12-18T04:09:07;65.40;;;27.13;;
9775;SDS011;4927;52.472;13.108;2022-12-18T04:14:13;64.60;;;27.20;;
9775;SDS011;4927;52.472;13.108;2022-12-18T04:19:19;73.32;;;29.67;;
9775;SDS011;4927;52.472;13.108;2022-12-18T04:24:26;75.28;;;30.10;;
9775;SDS011;4927;52.472;13.108;2022-12-18T04:29:32;71.80;;;29.27;;
9775;SDS011;4927;52.472;13.108;2022-12-18T04:34:38;70.47;;;28.80;;
9775;SDS011;4927;52.472;13.108;2022-12-18T04:39:45;69.90;;;28.48;;
9775;SDS011;4927;52.472;13.108;2022-12-18T04:44:51;67.28;;;28.75;;
9775;SDS011;4927;52.472;13.108;2022-12-18T04:49:57;63.45;;;27.73;;
9775;SDS011;4927;52.472;13.108;2022-12-18T04:55:05;64.15;;;27.20;;
9775;SDS011;4927;52.472;13.108;2022-12-18T05:00:12;57.08;;;25.90;;
9775;SDS011;4927;52.472;13.108;2022-12-18T05:05:23;53.55;;;24.87;;
9775;SDS011;4927;52.472;13.108;2022-12-18T05:10:30;52.67;;;24.37;;
9775;SDS011;4927;52.472;13.108;2022-12-18T05:15:36;51.72;;;23.60;;
9775;SDS011;4927;52.472;13.108;2022-12-18T05:20:43;54.00;;;24.20;;
9775;SDS011;4927;52.472;13.108;2022-12-18T05:25:53;55.42;;;25.15;;
9775;SDS011;4927;52.472;13.108;2022-12-18T05:31:01;52.85;;;23.95;;
9775;SDS011;4927;52.472;13.108;2022-12-18T05:36:07;48.58;;;22.95;;
9775;SDS011;4927;52.472;13.108;2022-12-18T05:41:14;49.95;;;23.67;;
9775;SDS011;4927;52.472;13.108;2022-12-18T06:01:24;43.67;;;18.77;;
9775;SDS011;4927;52.472;13.108;2022-12-18T06:11:51;48.33;;;22.77;;
9775;SDS011;4927;52.472;13.108;2022-12-18T06:16:56;49.08;;;22.50;;
9775;SDS011;4927;52.472;13.108;2022-12-18T06:22:02;55.38;;;24.63;;
9775;SDS011;4927;52.472;13.108;2022-12-18T06:27:13;52.60;;;25.10;;
9775;SDS011;4927;52.472;13.108;2022-12-18T06:32:19;50.45;;;23.52;;
9775;SDS011;4927;52.472;13.108;2022-12-18T06:37:25;58.40;;;25.85;;
9775;SDS011;4927;52.472;13.108;2022-12-18T06:42:32;55.47;;;25.00;;
9775;SDS011;4927;52.472;13.108;2022-12-18T06:47:38;52.88;;;24.37;;
9775;SDS011;4927;52.472;13.108;2022-12-18T06:52:44;48.33;;;22.62;;
9775;SDS011;4927;52.472;13.108;2022-12-18T06:57:50;52.53;;;24.05;;
9775;SDS011;4927;52.472;13.108;2022-12-18T07:02:57;53.05;;;24.08;;
9775;SDS011;4927;52.472;13.108;2022-12-18T07:08:03;51.33;;;23.27;;
9775;SDS011;4927;52.472;13.108;2022-12-18T07:13:10;48.22;;;22.95;;
9775;SDS011;4927;52.472;13.108;2022-12-18T07:18:16;52.17;;;25.08;;
9775;SDS011;4927;52.472;13.108;2022-12-18T07:23:22;54.17;;;25.08;;
9775;SDS011;4927;52.472;13.108;2022-12-18T07:28:29;65.75;;;26.45;;
9775;SDS011;4927;52.472;13.108;2022-12-18T07:33:35;57.08;;;25.83;;
9775;SDS011;4927;52.472;13.108;2022-12-18T07:38:41;65.20;;;26.27;;
9775;SDS011;4927;52.472;13.108;2022-12-18T07:43:48;59.78;;;26.42;;
9775;SDS011;4927;52.472;13.108;2022-12-18T07:48:54;63.58;;;26.85;;
9775;SDS011;4927;52.472;13.108;2022-12-18T07:54:00;67.60;;;27.70;;
9775;SDS011;4927;52.472;13.108;2022-12-18T07:59:06;66.68;;;26.83;;
9775;SDS011;4927;52.472;13.108;2022-12-18T08:04:13;62.47;;;27.30;;
9775;SDS011;4927;52.472;13.108;2022-12-18T08:09:19;58.53;;;27.33;;
9775;SDS011;4927;52.472;13.108;2022-12-18T08:14:25;58.25;;;25.17;;
9775;SDS011;4927;52.472;13.108;2022-12-18T08:19:32;49.88;;;24.85;;
9775;SDS011;4927;52.472;13.108;2022-12-18T08:24:35;50.05;;;24.40;;
9775;SDS011;4927;52.472;13.108;2022-12-18T08:29:42;47.78;;;22.80;;
9775;SDS011;4927;52.472;13.108;2022-12-18T08:34:48;51.37;;;24.58;;
9775;SDS011;4927;52.472;13.108;2022-12-18T08:39:54;54.10;;;25.62;;
9775;SDS011;4927;52.472;13.108;2022-12-18T08:44:59;66.30;;;29.12;;
9775;SDS011;4927;52.472;13.108;2022-12-18T08:50:06;72.45;;;31.52;;
9775;SDS011;4927;52.472;13.108;2022-12-18T08:55:11;72.47;;;30.48;;
9775;SDS011;4927;52.472;13.108;2022-12-18T09:00:24;85.25;;;33.70;;
9775;SDS011;4927;52.472;13.108;2022-12-18T09:05:31;79.25;;;32.85;;
9775;SDS011;4927;52.472;13.108;2022-12-18T09:10:42;79.97;;;32.92;;
9775;SDS011;4927;52.472;13.108;2022-12-18T09:15:48;77.90;;;34.42;;
9775;SDS011;4927;52.472;13.108;2022-12-18T09:20:53;79.78;;;33.53;;
9775;SDS011;4927;52.472;13.108;2022-12-18T09:26:00;83.78;;;34.45;;
9775;SDS011;4927;52.472;13.108;2022-12-18T09:31:07;76.07;;;32.35;;
9775;SDS011;4927;52.472;13.108;2022-12-18T09:36:14;80.65;;;33.28;;
9775;SDS011;4927;52.472;13.108;2022-12-18T09:41:28;81.87;;;33.13;;
9775;SDS011;4927;52.472;13.108;2022-12-18T09:46:34;66.95;;;29.37;;
9775;SDS011;4927;52.472;13.108;2022-12-18T09:51:40;68.47;;;30.20;;
9775;SDS011;4927;52.472;13.108;2022-12-18T09:56:45;73.65;;;31.02;;
9775;SDS011;4927;52.472;13.108;2022-12-18T10:01:52;71.70;;;32.35;;
9775;SDS011;4927;52.472;13.108;2022-12-18T10:07:03;66.57;;;29.73;;
9775;SDS011;4927;52.472;13.108;2022-12-18T10:12:16;55.47;;;28.12;;
9775;SDS011;4927;52.472;13.108;2022-12-18T10:17:26;54.20;;;27.40;;
9775;SDS011;4927;52.472;13.108;2022-12-18T10:22:56;53.10;;;26.20;;
9775;SDS011;4927;52.472;13.108;2022-12-18T10:28:00;55.63;;;27.05;;
9775;SDS011;4927;52.472;13.108;2022-12-18T10:33:05;47.00;;;24.87;;
9775;SDS011;4927;52.472;13.108;2022-12-18T10:38:27;49.80;;;25.00;;
9775;SDS011;4927;52.472;13.108;2022-12-18T10:43:34;49.05;;;24.33;;
9775;SDS011;4927;52.472;13.108;2022-12-18T10:48:40;49.65;;;25.90;;
9775;SDS011;4927;52.472;13.108;2022-12-18T10:53:44;51.37;;;26.00;;
9775;SDS011;4927;52.472;13.108;2022-12-18T10:58:55;50.85;;;25.35;;
9775;SDS011;4927;52.472;13.108;2022-12-18T11:04:00;54.20;;;27.67;;
9775;SDS011;4927;52.472;13.108;2022-12-18T11:09:04;49.50;;;26.00;;
9775;SDS011;4927;52.472;13.108;2022-12-18T11:14:12;47.38;;;25.33;;
9775;SDS011;4927;52.472;13.108;2022-12-18T11:19:25;45.15;;;24.92;;
9775;SDS011;4927;52.472;13.108;2022-12-18T11:24:32;50.15;;;25.75;;
9775;SDS011;4927;52.472;13.108;2022-12-18T11:29:38;48.45;;;26.33;;
9775;SDS011;4927;52.472;13.108;2022-12-18T11:34:44;51.72;;;26.87;;
9775;SDS011;4927;52.472;13.108;2022-12-18T11:39:50;50.47;;;26.23;;
9775;SDS011;4927;52.472;13.108;2022-12-18T11:44:58;48.03;;;25.27;;
9775;SDS011;4927;52.472;13.108;2022-12-18T11:50:10;54.50;;;27.77;;
9775;SDS011;4927;52.472;13.108;2022-12-18T11:55:14;55.58;;;27.65;;
9775;SDS011;4927;52.472;13.108;2022-12-18T12:00:18;58.30;;;28.20;;
9775;SDS011;4927;52.472;13.108;2022-12-18T12:05:33;62.97;;;30.02;;
9775;SDS011;4927;52.472;13.108;2022-12-18T12:11:10;57.35;;;29.10;;
9775;SDS011;4927;52.472;13.108;2022-12-18T12:16:24;63.85;;;29.37;;
9775;SDS011;4927;52.472;13.108;2022-12-18T12:21:36;60.03;;;29.70;;
9775;SDS011;4927;52.472;13.108;2022-12-18T12:32:15;54.38;;;27.77;;
9775;SDS011;4927;52.472;13.108;2022-12-18T12:42:58;54.73;;;24.60;;
9775;SDS011;4927;52.472;13.108;2022-12-18T12:48:14;45.25;;;25.40;;
9775;SDS011;4927;52.472;13.108;2022-12-18T12:53:21;51.00;;;27.20;;
9775;SDS011;4927;52.472;13.108;2022-12-18T12:58:29;45.35;;;24.45;;
9775;SDS011;4927;52.472;13.108;2022-12-18T13:09:00;41.17;;;24.08;;
9775;SDS011;4927;52.472;13.108;2022-12-18T13:14:12;43.72;;;25.65;;
9775;SDS011;4927;52.472;13.108;2022-12-18T13:24:27;32.53;;;20.85;;
9775;SDS011;4927;52.472;13.108;2022-12-18T13:29:41;38.85;;;23.15;;
9775;SDS011;4927;52.472;13.108;2022-12-18T13:34:47;41.35;;;23.50;;
9775;SDS011;4927;52.472;13.108;2022-12-18T13:39:53;37.35;;;22.58;;
9775;SDS011;4927;52.472;13.108;2022-12-18T13:45:00;33.85;;;22.27;;
9775;SDS011;4927;52.472;13.108;2022-12-18T13:50:10;34.53;;;21.20;;
9775;SDS011;4927;52.472;13.108;2022-12-18T13:55:16;38.67;;;22.87;;
9775;SDS011;4927;52.472;13.108;2022-12-18T14:00:26;32.83;;;21.62;;
9775;SDS011;4927;52.472;13.108;2022-12-18T14:05:33;32.80;;;21.50;;
9775;SDS011;4927;52.472;13.108;2022-12-18T14:10:40;34.33;;;19.73;;
9775;SDS011;4927;52.472;13.108;2022-12-18T14:15:46;34.58;;;20.37;;
9775;SDS011;4927;52.472;13.108;2022-12-18T14:20:54;29.58;;;19.10;;
9775;SDS011;4927;52.472;13.108;2022-12-18T14:26:02;30.33;;;19.02;;
9775;SDS011;4927;52.472;13.108;2022-12-18T14:31:16;32.30;;;21.02;;
9775;SDS011;4927;52.472;13.108;2022-12-18T14:36:15;32.08;;;21.73;;
9775;SDS011;4927;52.472;13.108;2022-12-18T14:41:20;31.40;;;21.17;;
9775;SDS011;4927;52.472;13.108;2022-12-18T14:46:35;33.55;;;21.20;;
9775;SDS011;4927;52.472;13.108;2022-12-18T14:51:39;33.75;;;21.00;;
9775;SDS011;4927;52.472;13.108;2022-12-18T14:56:47;46.35;;;24.42;;
9775;SDS011;4927;52.472;13.108;2022-12-18T15:02:00;41.40;;;22.50;;
9775;SDS011;4927;52.472;13.108;2022-12-18T15:07:20;40.47;;;23.52;;
9775;SDS011;4927;52.472;13.108;2022-12-18T15:12:28;49.95;;;26.05;;
9775;SDS011;4927;52.472;13.108;2022-12-18T15:17:32;52.70;;;27.10;;
9775;SDS011;4927;52.472;13.108;2022-12-18T15:22:38;59.30;;;29.80;;
9775;SDS011;4927;52.472;13.108;2022-12-18T15:27:45;65.80;;;33.35;;
9775;SDS011;4927;52.472;13.108;2022-12-18T15:32:52;75.18;;;34.83;;
9775;SDS011;4927;52.472;13.108;2022-12-18T15:37:57;67.12;;;33.10;;
9775;SDS011;4927;52.472;13.108;2022-12-18T15:43:04;66.87;;;32.97;;
9775;SDS011;4927;52.472;13.108;2022-12-18T15:48:20;67.60;;;32.70;;
9775;SDS011;4927;52.472;13.108;2022-12-18T15:53:27;64.45;;;31.80;;
9775;SDS011;4927;52.472;13.108;2022-12-18T15:58:32;57.95;;;30.95;;
9775;SDS011;4927;52.472;13.108;2022-12-18T16:03:38;61.47;;;31.02;;
9775;SDS011;4927;52.472;13.108;2022-12-18T16:08:44;50.50;;;26.95;;
9775;SDS011;4927;52.472;13.108;2022-12-18T16:13:51;47.53;;;26.45;;
9775;SDS011;4927;52.472;13.108;2022-12-18T16:18:57;51.40;;;27.87;;
9775;SDS011;4927;52.472;13.108;2022-12-18T16:24:04;51.63;;;27.58;;
9775;SDS011;4927;52.472;13.108;2022-12-18T16:29:11;57.38;;;29.17;;
9775;SDS011;4927;52.472;13.108;2022-12-18T16:34:20;58.90;;;30.88;;
9775;SDS011;4927;52.472;13.108;2022-12-18T16:39:29;55.45;;;30.05;;
9775;SDS011;4927;52.472;13.108;2022-12-18T16:44:35;57.55;;;30.33;;
9775;SDS011;4927;52.472;13.108;2022-12-18T16:49:42;43.80;;;25.25;;
9775;SDS011;4927;52.472;13.108;2022-12-18T16:54:48;41.30;;;24.58;;
9775;SDS011;4927;52.472;13.108;2022-12-18T16:59:54;40.53;;;23.65;;
9775;SDS011;4927;52.472;13.108;2022-12-18T17:05:01;40.35;;;23.48;;
9775;SDS011;4927;52.472;13.108;2022-12-18T17:10:07;38.63;;;23.52;;
9775;SDS011;4927;52.472;13.108;2022-12-18T17:15:14;37.92;;;23.83;;
9775;SDS011;4927;52.472;13.108;2022-12-18T17:20:21;40.50;;;24.17;;
9775;SDS011;4927;52.472;13.108;2022-12-18T17:25:27;36.22;;;22.77;;
9775;SDS011;4927;52.472;13.108;2022-12-18T17:30:33;39.85;;;22.90;;
9775;SDS011;4927;52.472;13.108;2022-12-18T17:35:40;40.72;;;25.15;;
9775;SDS011;4927;52.472;13.108;2022-12-18T17:40:46;38.45;;;23.65;;
9775;SDS011;4927;52.472;13.108;2022-12-18T17:45:52;39.47;;;24.35;;
9775;SDS011;4927;52.472;13.108;2022-12-18T17:51:01;38.55;;;23.60;;
9775;SDS011;4927;52.472;13.108;2022-12-18T17:56:12;40.97;;;23.95;;
9775;SDS011;4927;52.472;13.108;2022-12-18T18:01:19;37.28;;;24.30;;
9775;SDS011;4927;52.472;13.108;2022-12-18T18:06:25;43.67;;;25.05;;
9775;SDS011;4927;52.472;13.108;2022-12-18T18:11:29;42.65;;;24.75;;
9775;SDS011;4927;52.472;13.108;2022-12-18T18:16:42;41.95;;;23.92;;
9775;SDS011;4927;52.472;13.108;2022-12-18T18:21:48;43.00;;;25.50;;
9775;SDS011;4927;52.472;13.108;2022-12-18T18:26:54;40.47;;;24.37;;
9775;SDS011;4927;52.472;13.108;2022-12-18T18:31:58;44.22;;;25.30;;
9775;SDS011;4927;52.472;13.108;2022-12-18T18:37:03;43.80;;;24.48;;
9775;SDS011;4927;52.472;13.108;2022-12-18T18:42:09;38.08;;;23.62;;
9775;SDS011;4927;52.472;13.108;2022-12-18T18:47:16;42.42;;;23.70;;
9775;SDS011;4927;52.472;13.108;2022-12-18T18:52:23;43.03;;;23.65;;
9775;SDS011;4927;52.472;13.108;2022-12-18T18:57:29;46.45;;;25.05;;
9775;SDS011;4927;52.472;13.108;2022-12-18T19:02:36;51.10;;;25.35;;
9775;SDS011;4927;52.472;13.108;2022-12-18T19:07:42;48.13;;;25.90;;
9775;SDS011;4927;52.472;13.108;2022-12-18T19:12:48;51.75;;;27.45;;
9775;SDS011;4927;52.472;13.108;2022-12-18T19:17:59;47.30;;;25.50;;
9775;SDS011;4927;52.472;13.108;2022-12-18T19:23:05;47.38;;;26.12;;
9775;SDS011;4927;52.472;13.108;2022-12-18T19:28:11;53.40;;;26.80;;
9775;SDS011;4927;52.472;13.108;2022-12-18T19:33:18;48.35;;;26.37;;
9775;SDS011;4927;52.472;13.108;2022-12-18T19:38:22;54.00;;;28.83;;
9775;SDS011;4927;52.472;13.108;2022-12-18T19:43:28;54.13;;;28.30;;
9775;SDS011;4927;52.472;13.108;2022-12-18T19:48:35;48.35;;;27.87;;
9775;SDS011;4927;52.472;13.108;2022-12-18T19:53:42;50.03;;;27.20;;
9775;SDS011;4927;52.472;13.108;2022-12-18T19:58:48;53.72;;;28.27;;
9775;SDS011;4927;52.472;13.108;2022-12-18T20:03:54;48.35;;;26.40;;
9775;SDS011;4927;52.472;13.108;2022-12-18T20:09:03;50.80;;;27.87;;
9775;SDS011;4927;52.472;13.108;2022-12-18T20:14:09;54.88;;;27.73;;
9775;SDS011;4927;52.472;13.108;2022-12-18T20:19:14;54.03;;;29.05;;
9775;SDS011;4927;52.472;13.108;2022-12-18T20:24:21;50.80;;;27.25;;
9775;SDS011;4927;52.472;13.108;2022-12-18T20:29:25;51.00;;;27.48;;
9775;SDS011;4927;52.472;13.108;2022-12-18T20:34:31;56.28;;;28.60;;
9775;SDS011;4927;52.472;13.108;2022-12-18T20:39:38;54.92;;;27.58;;
9775;SDS011;4927;52.472;13.108;2022-12-18T20:44:44;56.85;;;27.37;;
9775;SDS011;4927;52.472;13.108;2022-12-18T20:49:51;55.45;;;28.10;;
9775;SDS011;4927;52.472;13.108;2022-12-18T20:54:57;52.40;;;28.50;;
9775;SDS011;4927;52.472;13.108;2022-12-18T21:00:05;50.30;;;27.35;;
9775;SDS011;4927;52.472;13.108;2022-12-18T21:05:12;50.28;;;26.52;;
9775;SDS011;4927;52.472;13.108;2022-12-18T21:10:18;48.50;;;26.33;;
9775;SDS011;4927;52.472;13.108;2022-12-18T21:15:25;53.72;;;27.52;;
9775;SDS011;4927;52.472;13.108;2022-12-18T21:20:32;51.95;;;27.10;;
9775;SDS011;4927;52.472;13.108;2022-12-18T21:25:38;52.40;;;26.75;;
9775;SDS011;4927;52.472;13.108;2022-12-18T21:30:44;50.78;;;27.25;;
9775;SDS011;4927;52.472;13.108;2022-12-18T21:35:51;47.05;;;26.40;;
9775;SDS011;4927;52.472;13.108;2022-12-18T21:40:57;51.58;;;27.10;;
9775;SDS011;4927;52.472;13.108;2022-12-18T21:46:01;48.72;;;26.80;;
9775;SDS011;4927;52.472;13.108;2022-12-18T21:51:08;47.83;;;24.85;;
9775;SDS011;4927;52.472;13.108;2022-12-18T21:56:14;48.47;;;27.10;;
9775;SDS011;4927;52.472;13.108;2022-12-18T22:01:20;48.33;;;26.62;;
9775;SDS011;4927;52.472;13.108;2022-12-18T22:06:27;52.97;;;27.42;;
9775;SDS011;4927;52.472;13.108;2022-12-18T22:11:33;52.47;;;26.92;;
9775;SDS011;4927;52.472;13.108;2022-12-18T22:16:40;48.90;;;25.45;;
9775;SDS011;4927;52.472;13.108;2022-12-18T22:21:47;52.53;;;26.20;;
9775;SDS011;4927;52.472;13.108;2022-12-18T22:26:52;50.03;;;24.77;;
9775;SDS011;4927;52.472;13.108;2022-12-18T22:31:58;51.30;;;26.08;;
9775;SDS011;4927;52.472;13.108;2022-12-18T22:37:11;50.28;;;25.40;;
9775;SDS011;4927;52.472;13.108;2022-12-18T22:42:18;53.05;;;26.77;;
9775;SDS011;4927;52.472;13.108;2022-12-18T22:47:24;51.05;;;26.75;;
9775;SDS011;4927;52.472;13.108;2022-12-18T22:52:31;50.72;;;25.12;;
9775;SDS011;4927;52.472;13.108;2022-12-18T22:57:37;56.50;;;26.67;;
9775;SDS011;4927;52.472;13.108;2022-12-18T23:03:28;52.57;;;22.80;;
9775;SDS011;4927;52.472;13.108;2022-12-18T23:08:33;52.00;;;25.30;;
9775;SDS011;4927;52.472;13.108;2022-12-18T23:13:38;50.00;;;24.55;;
9775;SDS011;4927;52.472;13.108;2022-12-18T23:18:45;52.70;;;24.55;;
9775;SDS011;4927;52.472;13.108;2022-12-18T23:23:51;49.72;;;24.77;;
9775;SDS011;4927;52.472;13.108;2022-12-18T23:28:57;54.33;;;26.35;;
9775;SDS011;4927;52.472;13.108;2022-12-18T23:34:04;46.47;;;24.52;;
9775;SDS011;4927;52.472;13.108;2022-12-18T23:39:11;50.20;;;24.85;;
9775;SDS011;4927;52.472;13.108;2022-12-18T23:44:17;49.33;;;22.87;;
9775;SDS011;4927;52.472;13.108;2022-12-18T23:49:24;45.53;;;23.73;;
9775;SDS011;4927;52.472;13.108;2022-12-18T23:54:34;51.85;;;24.15;;
9775;SDS011;4927;52.472;13.108;2022-12-18T23:59:41;42.97;;;22.25;;
